createdAt,value
2018-03-27T00:00:15.194Z,46.22
2018-03-27T00:02:44.430Z,46.00
2018-03-27T00:05:16.619Z,47.53
2018-03-27T00:07:45.927Z,46.40
2018-03-27T00:10:15.006Z,41.60
2018-03-27T00:12:44.390Z,44.67
2018-03-27T00:15:13.623Z,43.57
2018-03-27T00:17:43.044Z,36.60
2018-03-27T00:20:12.295Z,44.47
2018-03-27T00:22:41.429Z,53.70
2018-03-27T00:25:10.693Z,54.73
2018-03-27T00:27:51.229Z,48.47
2018-03-27T00:30:37.497Z,46.70
2018-03-27T00:33:23.833Z,50.17
2018-03-27T00:36:10.003Z,49.37
2018-03-27T00:38:56.166Z,46.30
2018-03-27T00:44:44.137Z,48.13
2018-03-27T00:47:12.715Z,47.57
2018-03-27T00:49:41.358Z,43.33
2018-03-27T00:52:10.441Z,44.40
2018-03-27T00:54:39.661Z,45.57
2018-03-27T00:57:08.763Z,48.47
2018-03-27T00:59:37.777Z,51.10
2018-03-27T01:02:07.197Z,49.17
2018-03-27T01:04:36.262Z,50.93
2018-03-27T01:07:05.431Z,51.40
2018-03-27T01:09:34.553Z,49.63
2018-03-27T01:12:03.642Z,44.50
2018-03-27T01:14:33.030Z,44.63
2018-03-27T01:17:02.171Z,45.90
2018-03-27T01:19:31.436Z,53.27
2018-03-27T01:22:00.584Z,53.10
2018-03-27T01:24:30.470Z,47.83
2018-03-27T01:26:59.511Z,49.53
2018-03-27T01:29:28.532Z,54.57
2018-03-27T01:31:57.686Z,50.07
2018-03-27T01:34:26.755Z,56.83
2018-03-27T01:36:55.803Z,53.33
2018-03-27T01:39:25.358Z,53.60
2018-03-27T01:41:54.369Z,60.07
2018-03-27T01:44:23.486Z,55.80
2018-03-27T01:46:52.475Z,51.87
2018-03-27T01:49:21.503Z,55.53
2018-03-27T01:51:50.762Z,53.70
2018-03-27T01:54:19.885Z,59.67
2018-03-27T01:56:48.964Z,50.23
2018-03-27T01:59:17.955Z,52.67
2018-03-27T02:01:47.082Z,50.27
2018-03-27T02:04:16.409Z,50.93
2018-03-27T02:06:45.562Z,55.63
2018-03-27T02:09:14.821Z,54.50
2018-03-27T02:11:49.688Z,61.30
2018-03-27T02:14:24.566Z,60.97
2018-03-27T02:16:59.476Z,57.10
2018-03-27T02:19:34.163Z,59.43
2018-03-27T02:22:02.663Z,52.00
2018-03-27T02:24:31.727Z,52.80
2018-03-27T02:27:01.161Z,54.07
2018-03-27T02:29:30.363Z,48.83
2018-03-27T02:31:59.450Z,44.37
2018-03-27T02:34:28.672Z,41.57
2018-03-27T02:36:57.912Z,45.67
2018-03-27T02:39:27.303Z,51.50
2018-03-27T02:41:56.470Z,50.27
2018-03-27T02:44:25.826Z,46.50
2018-03-27T02:46:55.040Z,55.23
2018-03-27T02:49:24.206Z,48.90
2018-03-27T02:51:53.364Z,50.53
2018-03-27T02:54:22.495Z,48.03
2018-03-27T02:56:51.789Z,45.90
2018-03-27T02:59:20.901Z,41.07
2018-03-27T03:01:49.989Z,39.90
2018-03-27T03:04:19.099Z,46.50
2018-03-27T03:06:48.447Z,38.57
2018-03-27T03:09:17.594Z,32.00
2018-03-27T03:11:46.822Z,30.67
2018-03-27T03:14:16.119Z,27.63
2018-03-27T03:16:45.410Z,29.07
2018-03-27T03:19:14.515Z,22.00
2018-03-27T03:21:43.709Z,23.97
2018-03-27T03:24:13.026Z,23.00
2018-03-27T03:26:42.215Z,20.15
2018-03-27T03:29:11.523Z,23.17
2018-03-27T03:31:40.578Z,20.83
2018-03-27T03:34:09.765Z,20.62
2018-03-27T03:36:38.955Z,22.60
2018-03-27T03:39:08.066Z,24.73
2018-03-27T03:41:37.410Z,21.70
2018-03-27T03:44:06.549Z,25.63
2018-03-27T03:46:35.686Z,23.70
2018-03-27T03:49:05.175Z,23.23
2018-03-27T03:51:34.261Z,26.65
2018-03-27T03:54:03.458Z,23.90
2018-03-27T03:56:32.530Z,21.30
2018-03-27T03:59:01.731Z,18.60
2018-03-27T04:01:30.917Z,19.92
2018-03-27T04:04:00.002Z,24.40
2018-03-27T04:06:29.240Z,22.70
2018-03-27T04:08:58.461Z,21.40
2018-03-27T04:11:27.651Z,21.35
2018-03-27T04:13:56.821Z,21.30
2018-03-27T04:16:26.066Z,37.75
2018-03-27T04:18:55.279Z,20.80
2018-03-27T04:21:24.407Z,23.50
2018-03-27T04:23:53.605Z,19.53
2018-03-27T04:26:23.054Z,18.95
2018-03-27T04:28:52.606Z,17.67
2018-03-27T04:31:21.814Z,18.50
2018-03-27T04:33:51.058Z,21.08
2018-03-27T04:36:20.836Z,23.95
2018-03-27T04:38:50.357Z,23.12
2018-03-27T04:41:19.498Z,23.80
2018-03-27T04:43:48.910Z,23.45
2018-03-27T04:46:18.099Z,22.02
2018-03-27T04:48:47.199Z,23.00
2018-03-27T04:51:16.525Z,22.75
2018-03-27T04:53:45.625Z,19.98
2018-03-27T04:56:14.994Z,21.73
2018-03-27T04:58:44.531Z,26.50
2018-03-27T05:01:13.820Z,20.40
2018-03-27T05:03:43.214Z,22.85
2018-03-27T05:06:12.638Z,21.37
2018-03-27T05:08:41.970Z,19.77
2018-03-27T05:11:11.218Z,19.87
2018-03-27T05:13:40.399Z,23.73
2018-03-27T05:16:09.587Z,21.53
2018-03-27T05:18:38.789Z,19.17
2018-03-27T05:21:08.087Z,17.33
2018-03-27T05:23:37.119Z,16.50
2018-03-27T05:26:06.461Z,20.00
2018-03-27T05:28:35.739Z,22.60
2018-03-27T05:31:05.128Z,21.00
2018-03-27T05:33:34.271Z,19.57
2018-03-27T05:36:03.352Z,20.80
2018-03-27T05:38:33.520Z,22.53
2018-03-27T05:41:02.595Z,22.47
2018-03-27T05:43:31.941Z,21.83
2018-03-27T05:46:01.173Z,19.93
2018-03-27T05:48:30.417Z,24.57
2018-03-27T05:50:59.537Z,22.10
2018-03-27T05:53:28.693Z,25.23
2018-03-27T05:55:58.105Z,24.90
2018-03-27T05:58:27.215Z,22.07
2018-03-27T06:00:56.423Z,22.57
2018-03-27T06:03:25.630Z,23.20
2018-03-27T06:05:54.931Z,21.10
2018-03-27T06:08:24.014Z,24.77
2018-03-27T06:10:53.218Z,24.27
2018-03-27T06:13:22.383Z,24.93
2018-03-27T06:15:51.559Z,24.43
2018-03-27T06:18:20.803Z,24.53
2018-03-27T06:20:50.025Z,23.03
2018-03-27T06:23:19.138Z,25.13
2018-03-27T06:25:48.495Z,25.63
2018-03-27T06:28:18.001Z,23.80
2018-03-27T06:30:47.362Z,23.53
2018-03-27T06:33:16.597Z,27.47
2018-03-27T06:35:45.788Z,24.57
2018-03-27T06:38:15.082Z,20.10
2018-03-27T06:40:44.214Z,23.30
2018-03-27T06:43:13.429Z,22.87
2018-03-27T06:45:42.603Z,23.70
2018-03-27T06:48:11.974Z,28.47
2018-03-27T06:50:41.406Z,69.73
2018-03-27T06:53:10.498Z,33.93
2018-03-27T06:55:39.695Z,31.27
2018-03-27T06:58:08.869Z,26.93
2018-03-27T07:00:38.113Z,26.87
2018-03-27T07:03:07.223Z,32.90
2018-03-27T07:05:36.493Z,25.67
2018-03-27T07:08:05.747Z,31.63
2018-03-27T07:10:35.102Z,25.93
2018-03-27T07:13:04.527Z,20.23
2018-03-27T07:15:33.881Z,43.70
2018-03-27T07:18:03.113Z,28.37
2018-03-27T07:20:32.418Z,33.67
2018-03-27T07:23:01.716Z,24.47
2018-03-27T07:25:31.068Z,22.97
2018-03-27T07:28:00.320Z,25.07
2018-03-27T07:30:29.632Z,28.13
2018-03-27T07:32:59.127Z,36.40
2018-03-27T07:35:28.274Z,28.57
2018-03-27T07:37:57.535Z,25.53
2018-03-27T07:40:26.778Z,21.37
2018-03-27T07:42:56.119Z,27.23
2018-03-27T07:45:25.193Z,30.67
2018-03-27T07:47:54.722Z,32.03
2018-03-27T07:50:24.132Z,32.03
2018-03-27T07:52:53.615Z,26.23
2018-03-27T07:55:22.836Z,27.07
2018-03-27T07:57:52.120Z,35.13
2018-03-27T08:00:21.646Z,30.60
2018-03-27T08:02:50.766Z,36.10
2018-03-27T08:05:19.926Z,33.40
2018-03-27T08:07:49.134Z,36.93
2018-03-27T08:10:18.310Z,33.10
2018-03-27T08:12:47.578Z,32.37
2018-03-27T08:15:16.986Z,24.67
2018-03-27T08:17:46.181Z,25.10
2018-03-27T08:20:15.641Z,30.80
2018-03-27T08:22:44.853Z,25.53
2018-03-27T08:25:14.100Z,29.67
2018-03-27T08:27:43.637Z,28.53
2018-03-27T08:30:13.062Z,20.03
2018-03-27T08:32:42.558Z,22.57
2018-03-27T08:35:11.857Z,24.50
2018-03-27T08:37:41.123Z,22.67
2018-03-27T08:40:10.440Z,32.63
2018-03-27T08:42:39.946Z,34.23
2018-03-27T08:45:09.367Z,22.40
2018-03-27T08:47:38.765Z,23.13
2018-03-27T08:50:08.174Z,25.57
2018-03-27T08:52:37.677Z,22.07
2018-03-27T08:55:06.954Z,22.87
2018-03-27T08:57:36.246Z,21.13
2018-03-27T09:00:06.443Z,21.50
2018-03-27T09:02:36.897Z,22.70
2018-03-27T09:05:06.246Z,24.30
2018-03-27T09:07:35.479Z,27.63
2018-03-27T09:10:04.754Z,31.97
2018-03-27T09:12:34.241Z,28.60
2018-03-27T09:15:03.530Z,29.00
2018-03-27T09:17:32.825Z,37.17
2018-03-27T09:20:02.205Z,31.63
2018-03-27T09:22:31.498Z,38.30
2018-03-27T09:25:00.837Z,44.43
2018-03-27T09:27:29.951Z,46.90
2018-03-27T09:29:59.290Z,52.58
2018-03-27T09:32:28.635Z,45.97
2018-03-27T09:34:58.246Z,46.22
2018-03-27T09:37:27.521Z,45.70
2018-03-27T09:39:56.775Z,46.15
2018-03-27T09:42:26.094Z,46.45
2018-03-27T09:44:55.177Z,52.65
2018-03-27T09:47:24.621Z,59.40
2018-03-27T09:49:53.933Z,56.55
2018-03-27T09:52:23.078Z,56.55
2018-03-27T09:54:52.951Z,54.05
2018-03-27T09:57:22.321Z,62.83
2018-03-27T09:59:51.511Z,57.50
2018-03-27T10:02:20.858Z,62.03
2018-03-27T10:04:50.243Z,66.95
2018-03-27T10:07:20.495Z,53.03
2018-03-27T10:09:49.708Z,71.15
2018-03-27T10:12:18.966Z,61.55
2018-03-27T10:14:48.385Z,60.40
2018-03-27T10:17:17.496Z,61.08
2018-03-27T10:19:46.891Z,61.25
2018-03-27T10:22:27.142Z,61.72
2018-03-27T10:25:02.191Z,65.72
2018-03-27T10:27:31.473Z,67.05
2018-03-27T10:30:00.741Z,63.45
2018-03-27T10:32:30.288Z,62.67
2018-03-27T10:34:59.677Z,62.45
2018-03-27T10:37:29.078Z,69.68
2018-03-27T10:39:58.186Z,67.78
2018-03-27T10:42:27.166Z,71.70
2018-03-27T10:44:56.149Z,71.37
2018-03-27T10:47:25.418Z,72.65
2018-03-27T10:49:55.323Z,59.38
2018-03-27T10:52:24.491Z,59.33
2018-03-27T10:54:53.437Z,53.47
2018-03-27T10:57:22.691Z,65.05
2018-03-27T10:59:51.823Z,61.37
2018-03-27T11:02:20.839Z,53.25
2018-03-27T11:04:49.869Z,68.65
2018-03-27T11:07:18.878Z,67.57
2018-03-27T11:09:48.258Z,63.28
2018-03-27T11:12:17.848Z,62.03
2018-03-27T11:14:47.125Z,64.18
2018-03-27T11:17:16.575Z,79.53
2018-03-27T11:19:45.666Z,65.87
2018-03-27T11:22:15.025Z,74.25
2018-03-27T11:24:44.371Z,73.20
2018-03-27T11:27:13.680Z,66.37
2018-03-27T11:29:42.839Z,76.10
2018-03-27T11:32:12.038Z,71.53
2018-03-27T11:34:41.254Z,61.13
2018-03-27T11:37:10.487Z,81.68
2018-03-27T11:39:39.646Z,79.12
2018-03-27T11:42:08.831Z,67.37
2018-03-27T11:44:38.040Z,62.75
2018-03-27T11:47:07.271Z,63.65
2018-03-27T11:49:36.562Z,81.05
2018-03-27T11:52:05.739Z,71.78
2018-03-27T11:54:35.276Z,80.90
2018-03-27T11:57:04.470Z,75.32
2018-03-27T11:59:33.664Z,65.93
2018-03-27T12:02:02.853Z,65.15
2018-03-27T12:04:32.028Z,70.35
2018-03-27T12:07:01.118Z,59.90
2018-03-27T12:09:30.222Z,62.35
2018-03-27T12:11:59.682Z,58.22
2018-03-27T12:14:29.055Z,58.65
2018-03-27T12:16:58.306Z,50.53
2018-03-27T12:19:27.414Z,43.92
2018-03-27T12:21:56.593Z,42.30
2018-03-27T12:24:26.061Z,42.88
2018-03-27T12:26:55.471Z,51.72
2018-03-27T12:29:24.738Z,51.47
2018-03-27T12:31:54.050Z,49.53
2018-03-27T12:34:23.343Z,55.90
2018-03-27T12:36:52.676Z,69.40
2018-03-27T12:39:21.695Z,59.28
2018-03-27T12:41:50.922Z,61.30
2018-03-27T12:44:20.206Z,54.92
2018-03-27T12:46:55.289Z,49.92
2018-03-27T12:49:24.647Z,53.42
2018-03-27T12:51:54.002Z,49.00
2018-03-27T12:54:23.100Z,45.72
2018-03-27T12:56:52.651Z,47.55
2018-03-27T12:59:21.665Z,46.83
2018-03-27T13:01:50.590Z,45.53
2018-03-27T13:04:19.765Z,46.40
2018-03-27T13:06:49.305Z,54.97
2018-03-27T13:09:18.446Z,51.05
2018-03-27T13:11:47.560Z,52.85
2018-03-27T13:14:17.135Z,47.75
2018-03-27T13:16:46.234Z,48.08
2018-03-27T13:19:15.214Z,49.17
2018-03-27T13:21:44.345Z,47.13
2018-03-27T13:24:13.457Z,41.78
2018-03-27T13:26:42.846Z,43.78
2018-03-27T13:29:11.915Z,50.53
2018-03-27T13:31:40.982Z,46.80
2018-03-27T13:34:10.245Z,58.70
2018-03-27T13:36:40.285Z,49.70
2018-03-27T13:39:09.430Z,46.78
2018-03-27T13:41:38.839Z,53.95
2018-03-27T13:44:08.086Z,57.53
2018-03-27T13:46:37.192Z,59.33
2018-03-27T13:49:06.584Z,59.65
2018-03-27T13:51:35.793Z,67.53
2018-03-27T13:54:04.831Z,64.07
2018-03-27T13:56:33.974Z,59.65
2018-03-27T13:59:03.018Z,68.15
2018-03-27T14:01:32.269Z,59.05
2018-03-27T14:04:01.367Z,63.15
2018-03-27T14:06:30.661Z,64.03
2018-03-27T14:08:59.781Z,85.78
2018-03-27T14:11:28.957Z,63.85
2018-03-27T14:13:58.058Z,69.15
2018-03-27T14:16:27.133Z,72.03
2018-03-27T14:18:56.240Z,62.60
2018-03-27T14:21:25.285Z,71.68
2018-03-27T14:23:54.563Z,68.80
2018-03-27T14:26:23.549Z,69.78
2018-03-27T14:28:52.638Z,65.85
2018-03-27T14:31:21.678Z,71.75
2018-03-27T14:33:50.746Z,68.80
2018-03-27T14:36:19.973Z,78.53
2018-03-27T14:38:49.341Z,74.03
2018-03-27T14:41:18.342Z,74.10
2018-03-27T14:43:47.458Z,68.18
2018-03-27T14:46:16.530Z,66.43
2018-03-27T14:48:45.877Z,66.82
2018-03-27T14:51:15.035Z,60.75
2018-03-27T14:53:44.323Z,57.72
2018-03-27T14:56:13.399Z,61.33
2018-03-27T14:58:42.495Z,63.40
2018-03-27T15:01:11.637Z,72.37
2018-03-27T15:03:40.942Z,65.62
2018-03-27T15:06:09.997Z,80.03
2018-03-27T15:08:39.011Z,76.53
2018-03-27T15:11:08.280Z,73.50
2018-03-27T15:13:37.439Z,63.33
2018-03-27T15:16:06.535Z,70.95
2018-03-27T15:18:35.794Z,57.03
2018-03-27T15:21:04.725Z,60.17
2018-03-27T15:23:33.854Z,66.57
2018-03-27T15:26:02.805Z,70.93
2018-03-27T15:28:31.831Z,74.37
2018-03-27T15:31:00.864Z,73.50
2018-03-27T15:33:30.177Z,71.57
2018-03-27T15:35:59.428Z,77.00
2018-03-27T15:38:28.448Z,60.05
2018-03-27T15:40:57.640Z,66.75
2018-03-27T15:43:26.702Z,62.90
2018-03-27T15:45:55.773Z,59.70
2018-03-27T15:48:24.814Z,67.05
2018-03-27T15:50:53.864Z,68.05
2018-03-27T15:53:22.862Z,67.37
2018-03-27T15:55:51.898Z,64.53
2018-03-27T15:58:20.900Z,71.22
2018-03-27T16:00:50.108Z,75.43
2018-03-27T16:03:19.169Z,65.25
2018-03-27T16:05:48.494Z,63.45
2018-03-27T16:08:17.619Z,67.37
2018-03-27T16:10:46.798Z,68.85
2018-03-27T16:13:15.911Z,64.80
2018-03-27T16:15:44.930Z,70.25
2018-03-27T16:18:14.418Z,75.18
2018-03-27T16:20:43.722Z,70.65
2018-03-27T16:23:12.682Z,77.03
2018-03-27T16:25:41.650Z,75.87
2018-03-27T16:28:11.013Z,72.82
2018-03-27T16:30:39.997Z,84.10
2018-03-27T16:33:08.966Z,61.03
2018-03-27T16:35:37.898Z,50.97
2018-03-27T16:38:07.050Z,69.05
2018-03-27T16:40:36.218Z,59.28
2018-03-27T16:43:05.459Z,60.45
2018-03-27T16:45:34.621Z,56.20
2018-03-27T16:48:03.741Z,56.40
2018-03-27T16:50:33.027Z,63.83
2018-03-27T16:53:02.036Z,54.08
2018-03-27T16:55:31.173Z,66.22
2018-03-27T16:58:00.398Z,55.30
2018-03-27T17:00:29.609Z,59.20
2018-03-27T17:02:58.882Z,62.47
2018-03-27T17:05:28.116Z,62.13
2018-03-27T17:07:58.147Z,62.67
2018-03-27T17:10:27.206Z,63.22
2018-03-27T17:12:56.286Z,63.55
2018-03-27T17:15:25.695Z,73.25
2018-03-27T17:17:54.782Z,82.03
2018-03-27T17:20:24.114Z,75.75
2018-03-27T17:22:53.350Z,81.22
2018-03-27T17:25:22.692Z,84.55
2018-03-27T17:27:51.891Z,83.07
2018-03-27T17:30:21.034Z,83.85
2018-03-27T17:32:50.221Z,74.78
2018-03-27T17:35:19.502Z,64.80
2018-03-27T17:37:48.575Z,69.53
2018-03-27T17:40:18.135Z,73.43
2018-03-27T17:42:47.241Z,78.07
2018-03-27T17:45:16.325Z,82.80
2018-03-27T17:47:45.478Z,73.32
2018-03-27T17:50:14.676Z,78.43
2018-03-27T17:52:43.685Z,76.68
2018-03-27T17:55:12.735Z,73.97
2018-03-27T17:57:41.735Z,71.55
2018-03-27T18:00:10.713Z,67.95
2018-03-27T18:02:39.771Z,74.95
2018-03-27T18:05:08.853Z,71.25
2018-03-27T18:07:38.011Z,58.20
2018-03-27T18:10:07.265Z,68.03
2018-03-27T18:12:36.241Z,70.78
2018-03-27T18:15:05.228Z,70.50
2018-03-27T18:17:34.241Z,73.15
2018-03-27T18:20:03.433Z,63.17
2018-03-27T18:22:32.527Z,67.75
2018-03-27T18:25:01.534Z,67.87
2018-03-27T18:27:30.758Z,62.95
2018-03-27T18:29:59.899Z,67.55
2018-03-27T18:32:29.158Z,67.47
2018-03-27T18:34:58.126Z,62.05
2018-03-27T18:37:27.278Z,74.10
2018-03-27T18:39:56.486Z,73.35
2018-03-27T18:42:25.513Z,78.87
2018-03-27T18:44:54.698Z,61.53
2018-03-27T18:47:24.032Z,74.43
2018-03-27T18:49:53.065Z,73.47
2018-03-27T18:52:22.151Z,85.12
2018-03-27T18:54:51.087Z,66.05
2018-03-27T18:57:20.186Z,59.28
2018-03-27T18:59:49.327Z,58.22
2018-03-27T19:02:18.342Z,69.87
2018-03-27T19:04:47.393Z,58.50
2018-03-27T19:07:16.638Z,58.05
2018-03-27T19:09:45.669Z,62.62
2018-03-27T19:12:14.754Z,56.22
2018-03-27T19:14:43.879Z,97.15
2018-03-27T19:17:13.029Z,80.07
2018-03-27T19:19:42.425Z,83.20
2018-03-27T19:22:11.455Z,96.47
2018-03-27T19:24:40.553Z,111.90
2018-03-27T19:27:09.738Z,110.25
2018-03-27T19:29:38.739Z,91.70
2018-03-27T19:32:07.941Z,83.95
2018-03-27T19:34:37.270Z,76.80
2018-03-27T19:37:06.426Z,76.53
2018-03-27T19:39:35.664Z,80.43
2018-03-27T19:42:04.651Z,73.85
2018-03-27T19:44:33.755Z,65.18
2018-03-27T19:47:02.890Z,76.80
2018-03-27T19:49:31.862Z,75.78
2018-03-27T19:52:00.879Z,62.67
2018-03-27T19:54:29.982Z,80.65
2018-03-27T19:56:58.965Z,76.40
2018-03-27T19:59:28.214Z,73.20
2018-03-27T20:01:57.308Z,59.70
2018-03-27T20:04:26.418Z,61.05
2018-03-27T20:06:55.551Z,58.25
2018-03-27T20:09:24.663Z,59.75
2018-03-27T20:11:53.759Z,58.63
2018-03-27T20:14:22.977Z,61.05
2018-03-27T20:16:52.054Z,69.15
2018-03-27T20:19:21.815Z,70.62
2018-03-27T20:21:51.059Z,63.40
2018-03-27T20:24:20.222Z,69.35
2018-03-27T20:26:49.455Z,66.87
2018-03-27T20:29:18.604Z,60.83
2018-03-27T20:31:47.581Z,58.97
2018-03-27T20:34:16.744Z,65.72
2018-03-27T20:36:45.755Z,65.18
2018-03-27T20:39:14.943Z,60.90
2018-03-27T20:41:44.031Z,57.75
2018-03-27T20:44:12.985Z,50.70
2018-03-27T20:46:42.093Z,52.45
2018-03-27T20:49:11.195Z,49.53
2018-03-27T20:51:40.538Z,42.10
2018-03-27T20:54:09.804Z,51.80
2018-03-27T20:56:38.930Z,47.78
2018-03-27T20:59:08.071Z,47.70
2018-03-27T21:01:37.420Z,48.72
2018-03-27T21:04:06.371Z,46.25
2018-03-27T21:06:35.435Z,54.42
2018-03-27T21:09:04.711Z,43.45
2018-03-27T21:11:33.926Z,43.67
2018-03-27T21:14:02.843Z,47.72
2018-03-27T21:16:31.940Z,42.33
2018-03-27T21:19:01.307Z,41.30
2018-03-27T21:21:30.297Z,42.53
2018-03-27T21:23:59.312Z,38.28
2018-03-27T21:26:28.402Z,39.20
2018-03-27T21:28:57.617Z,38.50
2018-03-27T21:31:26.690Z,43.10
2018-03-27T21:33:55.830Z,41.78
2018-03-27T21:36:25.027Z,42.38
2018-03-27T21:38:54.250Z,37.53
2018-03-27T21:41:23.223Z,40.20
2018-03-27T21:43:52.236Z,42.65
2018-03-27T21:46:21.447Z,38.08
2018-03-27T21:48:50.527Z,45.33
2018-03-27T21:51:19.787Z,36.90
2018-03-27T21:53:48.713Z,41.65
2018-03-27T21:56:17.681Z,40.65
2018-03-27T21:58:46.753Z,37.75
2018-03-27T22:01:18.801Z,37.42
2018-03-27T22:03:47.918Z,47.90
2018-03-27T22:06:26.863Z,56.28
2018-03-27T22:08:55.885Z,63.90
2018-03-27T22:11:25.273Z,64.18
2018-03-27T22:13:54.426Z,65.25
2018-03-27T22:16:23.448Z,65.00
2018-03-27T22:18:52.447Z,70.78
2018-03-27T22:21:21.477Z,76.10
2018-03-27T22:23:50.632Z,97.85
2018-03-27T22:26:19.782Z,89.13
2018-03-27T22:28:48.823Z,99.15
2018-03-27T22:31:18.006Z,84.62
2018-03-27T22:33:47.268Z,93.65
2018-03-27T22:36:16.465Z,92.35
2018-03-27T22:38:45.622Z,92.57
2018-03-27T22:41:14.762Z,90.90
2018-03-27T22:43:44.534Z,89.47
2018-03-27T22:46:13.831Z,90.78
2018-03-27T22:48:42.865Z,89.00
2018-03-27T22:51:12.211Z,96.35
2018-03-27T22:53:41.526Z,108.87
2018-03-27T22:56:10.693Z,102.30
2018-03-27T22:58:39.969Z,97.50
2018-03-27T23:01:09.115Z,85.80
2018-03-27T23:03:38.257Z,85.53
2018-03-27T23:06:07.493Z,92.68
2018-03-27T23:08:36.738Z,86.30
2018-03-27T23:11:05.863Z,88.03
2018-03-27T23:13:35.217Z,93.87
2018-03-27T23:16:04.413Z,92.35
2018-03-27T23:18:33.621Z,85.82
2018-03-27T23:21:02.831Z,104.50
2018-03-27T23:23:32.156Z,102.10
2018-03-27T23:26:01.267Z,104.85
2018-03-27T23:28:30.489Z,99.50
2018-03-27T23:30:59.609Z,90.60
2018-03-27T23:33:28.669Z,99.25
2018-03-27T23:35:57.851Z,91.55
2018-03-27T23:38:27.047Z,103.32
2018-03-27T23:40:56.437Z,92.28
2018-03-27T23:43:25.831Z,83.22
2018-03-27T23:45:55.245Z,83.85
2018-03-27T23:48:24.403Z,86.57
2018-03-27T23:50:53.513Z,93.15
2018-03-27T23:53:22.797Z,96.80
2018-03-27T23:55:51.889Z,84.35
2018-03-27T23:58:21.533Z,89.93
